createdAt,value
2024-04-23T00:00:50.010Z,62.94
2024-04-23T00:03:16.596Z,63.06
2024-04-23T00:05:43.157Z,62.95
2024-04-23T00:08:09.612Z,63.01
2024-04-23T00:10:36.257Z,62.89
2024-04-23T00:13:02.739Z,62.96
2024-04-23T00:15:29.213Z,63.10
2024-04-23T00:17:55.743Z,63.08
2024-04-23T00:20:22.394Z,63.09
2024-04-23T00:22:49.020Z,63.12
2024-04-23T00:25:15.669Z,63.10
2024-04-23T00:27:42.137Z,63.13
2024-04-23T00:30:09.114Z,63.22
2024-04-23T00:32:35.651Z,63.19
2024-04-23T00:35:02.864Z,63.24
2024-04-23T00:37:29.409Z,63.30
2024-04-23T00:39:56.005Z,63.37
2024-04-23T00:42:22.727Z,63.41
2024-04-23T00:44:51.581Z,63.32
2024-04-23T00:47:18.473Z,63.33
2024-04-23T00:49:45.133Z,63.42
2024-04-23T00:52:11.585Z,63.48
2024-04-23T00:54:38.334Z,63.52
2024-04-23T00:57:04.752Z,63.46
2024-04-23T00:59:31.634Z,63.53
2024-04-23T01:01:59.034Z,63.60
2024-04-23T01:04:25.778Z,63.66
2024-04-23T01:06:53.003Z,63.64
2024-04-23T01:09:20.728Z,63.57
2024-04-23T01:11:48.995Z,63.47
2024-04-23T01:14:15.534Z,63.51
2024-04-23T01:16:45.625Z,63.31
2024-04-23T01:19:25.131Z,63.23
2024-04-23T01:22:02.952Z,63.31
2024-04-23T01:24:35.735Z,63.23
2024-04-23T01:27:03.653Z,63.40
2024-04-23T01:29:31.690Z,63.35
2024-04-23T01:31:59.761Z,63.42
2024-04-23T01:34:29.532Z,63.59
2024-04-23T01:36:56.612Z,63.57
2024-04-23T01:39:24.811Z,63.62
2024-04-23T01:41:52.072Z,63.70
2024-04-23T01:44:19.915Z,63.76
2024-04-23T01:46:47.385Z,63.78
2024-04-23T01:49:14.145Z,63.77
2024-04-23T01:51:41.125Z,63.62
2024-04-23T01:54:07.536Z,63.64
2024-04-23T01:56:34.035Z,63.75
2024-04-23T01:59:00.631Z,63.74
2024-04-23T02:01:29.837Z,63.60
2024-04-23T02:03:56.558Z,63.58
2024-04-23T02:06:23.944Z,63.62
2024-04-23T02:08:52.732Z,63.62
2024-04-23T02:11:19.376Z,63.65
2024-04-23T02:13:46.037Z,63.61
2024-04-23T02:19:13.966Z,63.48
2024-04-23T02:21:40.424Z,63.56
2024-04-23T02:24:06.894Z,63.66
2024-04-23T02:26:33.339Z,63.68
2024-04-23T02:28:59.878Z,63.57
2024-04-23T02:31:26.490Z,63.63
2024-04-23T02:33:52.989Z,63.71
2024-04-23T02:36:19.441Z,63.69
2024-04-23T02:38:45.892Z,63.81
2024-04-23T02:41:12.364Z,63.79
2024-04-23T02:43:38.895Z,63.78
2024-04-23T02:46:05.490Z,63.79
2024-04-23T02:48:31.914Z,63.82
2024-04-23T02:50:58.411Z,63.82
2024-04-23T02:53:24.957Z,64.01
2024-04-23T02:55:51.467Z,63.95
2024-04-23T02:58:18.040Z,63.98
2024-04-23T03:00:44.494Z,63.94
2024-04-23T03:03:11.037Z,64.12
2024-04-23T03:05:37.572Z,64.09
2024-04-23T03:08:04.479Z,64.21
2024-04-23T03:10:30.958Z,64.22
2024-04-23T03:12:57.993Z,64.27
2024-04-23T03:15:24.494Z,64.19
2024-04-23T03:17:51.073Z,64.28
2024-04-23T03:20:18.382Z,64.22
2024-04-23T03:22:44.856Z,64.21
2024-04-23T03:25:11.366Z,64.20
2024-04-23T03:27:37.946Z,64.18
2024-04-23T03:30:04.760Z,64.27
2024-04-23T03:32:31.473Z,64.26
2024-04-23T03:34:58.209Z,64.38
2024-04-23T03:37:25.084Z,64.22
2024-04-23T03:39:51.530Z,64.17
2024-04-23T03:42:18.018Z,64.22
2024-04-23T03:44:46.707Z,64.20
2024-04-23T03:47:14.436Z,64.20
2024-04-23T03:49:40.967Z,64.16
2024-04-23T03:52:11.289Z,64.18
2024-04-23T03:54:38.143Z,64.19
2024-04-23T03:57:04.634Z,64.22
2024-04-23T03:59:31.169Z,64.21
2024-04-23T04:02:16.225Z,64.20
2024-04-23T04:05:01.652Z,64.15
2024-04-23T04:07:28.192Z,64.23
2024-04-23T04:09:55.280Z,64.29
2024-04-23T04:12:21.731Z,64.45
2024-04-23T04:14:48.237Z,64.37
2024-04-23T04:17:14.855Z,64.28
2024-04-23T04:19:42.109Z,64.26
2024-04-23T04:22:08.783Z,64.35
2024-04-23T04:24:35.260Z,64.17
2024-04-23T04:27:01.758Z,64.19
2024-04-23T04:29:28.288Z,64.28
2024-04-23T04:31:54.788Z,64.30
2024-04-23T04:34:21.921Z,64.45
2024-04-23T04:36:48.609Z,64.70
2024-04-23T04:39:15.147Z,64.75
2024-04-23T04:41:41.596Z,64.70
2024-04-23T04:44:08.129Z,64.81
2024-04-23T04:46:34.832Z,64.71
2024-04-23T04:49:01.429Z,64.58
2024-04-23T04:51:27.846Z,64.68
2024-04-23T04:53:54.335Z,64.73
2024-04-23T04:56:20.914Z,64.76
2024-04-23T04:58:47.559Z,64.63
2024-04-23T05:01:14.220Z,64.55
2024-04-23T05:03:40.787Z,64.50
2024-04-23T05:06:08.009Z,64.52
2024-04-23T05:08:34.447Z,64.57
2024-04-23T05:11:01.153Z,64.64
2024-04-23T05:13:27.783Z,64.83
2024-04-23T05:15:54.241Z,64.85
2024-04-23T05:18:20.769Z,64.74
2024-04-23T05:20:47.396Z,64.78
2024-04-23T05:23:13.824Z,64.63
2024-04-23T05:25:41.544Z,64.74
2024-04-23T05:28:08.138Z,64.73
2024-04-23T05:30:53.718Z,64.68
2024-04-23T05:33:20.288Z,64.71
2024-04-23T05:35:46.844Z,64.72
2024-04-23T05:38:16.066Z,64.62
2024-04-23T05:40:44.038Z,64.62
2024-04-23T05:43:10.673Z,64.77
2024-04-23T05:45:37.233Z,64.77
2024-04-23T05:48:41.704Z,64.85
2024-04-23T05:52:12.560Z,64.80
2024-04-23T05:55:39.323Z,64.72
2024-04-23T05:58:06.620Z,64.65
2024-04-23T06:00:33.865Z,64.57
2024-04-23T06:03:01.422Z,64.52
2024-04-23T06:05:28.608Z,64.39
2024-04-23T06:07:56.787Z,64.44
2024-04-23T06:10:23.356Z,64.36
2024-04-23T06:12:51.241Z,64.35
2024-04-23T06:15:18.738Z,64.44
2024-04-23T06:17:47.897Z,64.35
2024-04-23T06:20:15.733Z,64.26
2024-04-23T06:22:43.470Z,64.28
2024-04-23T06:25:11.636Z,64.19
2024-04-23T06:27:39.668Z,64.17
2024-04-23T06:30:11.220Z,64.20
2024-04-23T06:32:40.107Z,64.30
2024-04-23T06:35:08.559Z,64.30
2024-04-23T06:37:35.242Z,64.10
2024-04-23T06:40:05.451Z,64.17
2024-04-23T06:42:32.187Z,63.77
2024-04-23T06:44:58.742Z,63.70
2024-04-23T06:47:26.026Z,63.73
2024-04-23T06:49:52.756Z,63.41
2024-04-23T06:52:19.425Z,63.52
2024-04-23T06:54:46.198Z,63.27
2024-04-23T06:57:14.132Z,62.80
2024-04-23T06:59:43.889Z,62.75
2024-04-23T07:04:38.391Z,62.49
2024-04-23T07:07:08.020Z,62.51
2024-04-23T07:09:34.838Z,62.47
2024-04-23T07:12:01.376Z,61.64
2024-04-23T07:14:28.041Z,60.47
2024-04-23T07:16:54.690Z,60.31
2024-04-23T07:19:21.439Z,60.28
2024-04-23T07:21:47.922Z,60.46
2024-04-23T07:24:14.522Z,60.13
2024-04-23T07:26:42.785Z,59.64
2024-04-23T07:29:09.529Z,59.40
2024-04-23T07:31:36.528Z,59.36
2024-04-23T07:34:03.246Z,59.42
2024-04-23T07:36:29.865Z,59.51
2024-04-23T07:38:56.726Z,59.68
2024-04-23T07:41:23.540Z,59.73
2024-04-23T07:43:50.323Z,59.47
2024-04-23T07:46:17.280Z,59.56
2024-04-23T07:48:43.721Z,59.70
2024-04-23T07:51:10.360Z,59.42
2024-04-23T07:53:37.100Z,59.32
2024-04-23T07:56:04.416Z,59.38
2024-04-23T07:58:31.102Z,59.49
2024-04-23T08:00:57.911Z,59.33
2024-04-23T08:03:24.547Z,59.43
2024-04-23T08:05:55.506Z,59.18
2024-04-23T08:08:25.092Z,58.96
2024-04-23T08:10:51.729Z,58.45
2024-04-23T08:13:22.023Z,58.11
2024-04-23T08:15:48.619Z,58.40
2024-04-23T08:18:15.457Z,58.65
2024-04-23T08:20:42.910Z,58.96
2024-04-23T08:23:10.146Z,59.07
2024-04-23T08:25:37.298Z,58.93
2024-04-23T08:28:04.048Z,58.87
2024-04-23T08:30:30.705Z,58.20
2024-04-23T08:32:57.446Z,57.89
2024-04-23T08:35:24.240Z,57.81
2024-04-23T08:37:50.930Z,57.90
2024-04-23T08:40:17.651Z,58.05
2024-04-23T08:42:47.166Z,58.01
2024-04-23T08:45:15.494Z,57.97
2024-04-23T08:47:42.953Z,58.05
2024-04-23T08:50:10.746Z,58.08
2024-04-23T08:52:38.874Z,58.03
2024-04-23T08:55:06.552Z,58.26
2024-04-23T08:57:34.280Z,57.93
2024-04-23T09:00:03.669Z,57.51
2024-04-23T09:02:37.573Z,57.29
2024-04-23T09:05:06.376Z,57.14
2024-04-23T09:07:34.862Z,57.11
2024-04-23T09:10:06.203Z,57.26
2024-04-23T09:12:33.829Z,57.22
2024-04-23T09:15:01.168Z,56.93
2024-04-23T09:17:32.944Z,56.41
2024-04-23T09:20:01.070Z,56.68
2024-04-23T09:22:28.130Z,56.44
2024-04-23T09:25:03.092Z,56.39
2024-04-23T09:27:32.916Z,55.95
2024-04-23T09:29:59.472Z,55.96
2024-04-23T09:32:26.337Z,56.16
2024-04-23T09:34:55.225Z,56.15
2024-04-23T09:37:21.956Z,55.99
2024-04-23T09:39:48.462Z,55.74
2024-04-23T09:42:23.155Z,55.73
2024-04-23T09:44:51.581Z,55.39
2024-04-23T09:47:18.223Z,55.19
2024-04-23T09:49:54.941Z,55.14
2024-04-23T09:52:36.219Z,55.69
2024-04-23T09:55:06.244Z,56.71
2024-04-23T09:57:35.220Z,57.24
2024-04-23T10:00:03.958Z,55.95
2024-04-23T10:02:31.391Z,55.85
2024-04-23T10:05:06.505Z,55.03
2024-04-23T10:07:41.838Z,53.88
2024-04-23T10:10:09.783Z,53.79
2024-04-23T10:12:42.548Z,53.84
2024-04-23T10:15:19.977Z,53.39
2024-04-23T10:17:51.611Z,52.91
2024-04-23T10:20:23.763Z,52.65
2024-04-23T10:22:55.156Z,54.04
2024-04-23T10:25:22.170Z,54.11
2024-04-23T10:27:50.922Z,54.31
2024-04-23T10:30:18.285Z,52.62
2024-04-23T10:32:45.993Z,52.24
2024-04-23T10:35:17.468Z,51.23
2024-04-23T10:37:45.485Z,51.38
2024-04-23T10:40:14.894Z,50.57
2024-04-23T10:42:41.468Z,50.28
2024-04-23T10:45:08.772Z,50.71
2024-04-23T10:47:35.427Z,49.94
2024-04-23T10:50:09.058Z,50.06
2024-04-23T10:52:36.390Z,49.46
2024-04-23T10:55:08.877Z,49.49
2024-04-23T10:57:36.811Z,49.98
2024-04-23T11:00:04.989Z,48.49
2024-04-23T11:02:38.205Z,49.02
2024-04-23T11:05:08.504Z,50.43
2024-04-23T11:07:37.740Z,50.48
2024-04-23T11:10:07.101Z,51.19
2024-04-23T11:12:37.325Z,51.30
2024-04-23T11:15:14.439Z,50.52
2024-04-23T11:17:42.100Z,48.98
2024-04-23T11:20:09.755Z,48.19
2024-04-23T11:22:54.274Z,48.09
2024-04-23T11:25:34.254Z,47.57
2024-04-23T11:28:02.281Z,47.69
2024-04-23T11:30:28.972Z,47.93
2024-04-23T11:33:00.788Z,47.66
2024-04-23T11:35:28.382Z,47.20
2024-04-23T11:37:57.322Z,47.80
2024-04-23T11:40:23.921Z,48.35
2024-04-23T11:42:50.531Z,48.61
2024-04-23T11:45:16.980Z,48.51
2024-04-23T11:47:44.718Z,48.74
2024-04-23T11:50:14.648Z,48.66
2024-04-23T11:52:42.317Z,48.65
2024-04-23T11:55:10.238Z,48.47
2024-04-23T11:57:39.904Z,48.26
2024-04-23T12:00:07.383Z,48.24
2024-04-23T12:02:34.082Z,48.39
2024-04-23T12:05:05.766Z,48.41
2024-04-23T12:07:35.146Z,47.27
2024-04-23T12:10:04.914Z,47.86
2024-04-23T12:12:37.027Z,48.67
2024-04-23T12:15:05.748Z,49.27
2024-04-23T12:17:34.438Z,48.43
2024-04-23T12:20:01.101Z,47.80
2024-04-23T12:22:27.834Z,47.85
2024-04-23T12:24:55.060Z,47.67
2024-04-23T12:27:24.839Z,47.59
2024-04-23T12:29:52.678Z,46.83
2024-04-23T12:32:24.585Z,47.00
2024-04-23T12:34:57.398Z,46.82
2024-04-23T12:37:24.315Z,46.91
2024-04-23T12:39:54.079Z,47.19
2024-04-23T12:42:25.869Z,47.93
2024-04-23T12:44:52.509Z,48.58
2024-04-23T12:47:19.452Z,48.57
2024-04-23T12:49:46.300Z,48.44
2024-04-23T12:52:12.960Z,49.13
2024-04-23T12:54:40.312Z,48.14
2024-04-23T12:57:10.511Z,47.58
2024-04-23T12:59:38.879Z,45.38
2024-04-23T13:02:08.685Z,44.97
2024-04-23T13:04:35.668Z,45.76
2024-04-23T13:07:02.187Z,46.69
2024-04-23T13:09:28.813Z,46.08
2024-04-23T13:11:57.480Z,45.54
2024-04-23T13:14:24.180Z,45.14
2024-04-23T13:16:52.068Z,44.79
2024-04-23T13:19:24.585Z,44.50
2024-04-23T13:21:51.288Z,44.48
2024-04-23T13:24:17.693Z,45.22
2024-04-23T13:26:44.403Z,46.13
2024-04-23T13:29:13.971Z,46.15
2024-04-23T13:31:40.680Z,46.24
2024-04-23T13:34:10.872Z,46.18
2024-04-23T13:36:37.443Z,46.31
2024-04-23T13:39:04.000Z,46.63
2024-04-23T13:41:30.557Z,46.08
2024-04-23T13:43:57.275Z,45.04
2024-04-23T13:46:23.770Z,45.25
2024-04-23T13:48:50.426Z,45.55
2024-04-23T13:51:17.067Z,45.40
2024-04-23T13:53:46.121Z,45.40
2024-04-23T13:56:12.930Z,45.50
2024-04-23T13:58:40.027Z,45.28
2024-04-23T14:01:10.448Z,45.27
2024-04-23T14:03:38.066Z,45.13
2024-04-23T14:06:05.980Z,45.30
2024-04-23T14:08:36.366Z,45.40
2024-04-23T14:11:04.955Z,45.60
2024-04-23T14:13:36.410Z,45.79
2024-04-23T14:16:11.275Z,46.03
2024-04-23T14:18:38.505Z,46.19
2024-04-23T14:21:05.529Z,46.53
2024-04-23T14:23:35.639Z,46.12
2024-04-23T14:26:03.115Z,46.22
2024-04-23T14:28:32.816Z,46.21
2024-04-23T14:31:05.451Z,45.89
2024-04-23T14:33:32.809Z,44.79
2024-04-23T14:36:04.393Z,44.11
2024-04-23T14:38:32.208Z,44.26
2024-04-23T14:41:03.194Z,44.70
2024-04-23T14:43:30.168Z,44.56
2024-04-23T14:45:57.271Z,44.79
2024-04-23T14:48:24.565Z,45.07
2024-04-23T14:50:51.847Z,45.40
2024-04-23T14:53:21.653Z,45.28
2024-04-23T14:56:01.083Z,44.88
2024-04-23T14:58:28.412Z,44.85
2024-04-23T15:00:55.295Z,44.77
2024-04-23T15:03:22.228Z,44.41
2024-04-23T15:05:49.170Z,44.31
2024-04-23T15:08:16.156Z,44.43
2024-04-23T15:10:49.706Z,44.57
2024-04-23T15:13:22.288Z,44.94
2024-04-23T15:15:58.435Z,45.03
2024-04-23T15:18:25.102Z,45.01
2024-04-23T15:20:51.662Z,45.23
2024-04-23T15:23:18.256Z,45.21
2024-04-23T15:25:44.912Z,45.02
2024-04-23T15:28:11.509Z,45.01
2024-04-23T15:30:37.970Z,44.98
2024-04-23T15:33:05.155Z,44.89
2024-04-23T15:35:32.566Z,45.21
2024-04-23T15:37:59.177Z,45.30
2024-04-23T15:40:25.755Z,45.41
2024-04-23T15:42:52.211Z,45.35
2024-04-23T15:45:18.787Z,45.57
2024-04-23T15:47:45.453Z,45.10
2024-04-23T15:50:15.437Z,44.71
2024-04-23T15:52:44.847Z,44.73
2024-04-23T15:55:12.620Z,44.71
2024-04-23T15:57:39.177Z,44.95
2024-04-23T16:00:07.112Z,45.10
2024-04-23T16:02:34.299Z,45.17
2024-04-23T16:05:02.100Z,45.08
2024-04-23T16:07:31.820Z,45.27
2024-04-23T16:09:58.468Z,45.38
2024-04-23T16:12:24.995Z,45.39
2024-04-23T16:14:51.580Z,45.39
2024-04-23T16:17:18.239Z,45.24
2024-04-23T16:19:44.955Z,45.14
2024-04-23T16:22:11.572Z,45.34
2024-04-23T16:24:38.135Z,45.22
2024-04-23T16:27:05.385Z,45.44
2024-04-23T16:29:31.905Z,45.39
2024-04-23T16:31:58.603Z,45.28
2024-04-23T16:34:25.139Z,45.53
2024-04-23T16:36:52.109Z,45.56
2024-04-23T16:39:19.926Z,45.33
2024-04-23T16:41:49.700Z,45.42
2024-04-23T16:44:16.256Z,45.52
2024-04-23T16:46:43.044Z,45.70
2024-04-23T16:49:09.623Z,45.62
2024-04-23T16:51:36.169Z,45.75
2024-04-23T16:54:03.802Z,45.74
2024-04-23T16:56:30.673Z,45.73
2024-04-23T16:58:57.105Z,45.59
2024-04-23T17:01:23.804Z,45.83
2024-04-23T17:03:50.440Z,45.81
2024-04-23T17:06:17.031Z,45.88
2024-04-23T17:08:43.786Z,45.87
2024-04-23T17:11:10.360Z,45.93
2024-04-23T17:13:37.042Z,45.90
2024-04-23T17:16:16.955Z,46.11
2024-04-23T17:18:43.568Z,46.06
2024-04-23T17:21:14.216Z,46.03
2024-04-23T17:23:40.808Z,46.12
2024-04-23T17:26:07.411Z,46.12
2024-04-23T17:28:34.046Z,46.11
2024-04-23T17:31:01.319Z,46.15
2024-04-23T17:33:27.904Z,46.07
2024-04-23T17:35:58.001Z,46.14
2024-04-23T17:38:27.723Z,46.20
2024-04-23T17:40:54.499Z,46.36
2024-04-23T17:43:21.739Z,46.33
2024-04-23T17:45:51.489Z,46.33
2024-04-23T17:48:18.220Z,46.25
2024-04-23T17:50:44.941Z,46.34
2024-04-23T17:53:11.603Z,46.34
2024-04-23T17:55:39.209Z,46.53
2024-04-23T17:58:05.858Z,46.77
2024-04-23T18:00:32.477Z,46.61
2024-04-23T18:03:02.002Z,46.58
2024-04-23T18:05:28.600Z,46.60
2024-04-23T18:07:55.110Z,46.83
2024-04-23T18:10:21.704Z,46.90
2024-04-23T18:12:48.203Z,46.92
2024-04-23T18:15:14.842Z,46.96
2024-04-23T18:17:41.354Z,47.02
2024-04-23T18:20:08.288Z,47.07
2024-04-23T18:22:36.913Z,47.21
2024-04-23T18:25:04.300Z,47.21
2024-04-23T18:27:31.109Z,47.31
2024-04-23T18:29:57.558Z,47.44
2024-04-23T18:32:24.997Z,47.47
2024-04-23T18:34:51.622Z,47.54
2024-04-23T18:37:18.066Z,47.65
2024-04-23T18:39:44.646Z,47.72
2024-04-23T18:42:13.159Z,47.92
2024-04-23T18:44:39.712Z,47.97
2024-04-23T18:47:06.886Z,48.04
2024-04-23T18:49:33.427Z,48.12
2024-04-23T18:52:00.155Z,48.27
2024-04-23T18:54:26.668Z,48.40
2024-04-23T18:56:54.618Z,48.47
2024-04-23T18:59:21.414Z,48.55
2024-04-23T19:01:48.073Z,48.63
2024-04-23T19:04:14.698Z,48.70
2024-04-23T19:06:41.498Z,48.73
2024-04-23T19:09:08.100Z,48.81
2024-04-23T19:11:34.839Z,48.82
2024-04-23T19:14:11.101Z,48.92
2024-04-23T19:16:43.684Z,49.00
2024-04-23T19:19:10.368Z,49.06
2024-04-23T19:21:37.242Z,49.23
2024-04-23T19:24:03.993Z,49.34
2024-04-23T19:26:30.479Z,49.35
2024-04-23T19:28:57.001Z,49.49
2024-04-23T19:31:23.626Z,49.58
2024-04-23T19:33:50.486Z,49.55
2024-04-23T19:36:17.063Z,49.75
2024-04-23T19:38:44.803Z,49.82
2024-04-23T19:41:13.298Z,49.82
2024-04-23T19:43:51.547Z,49.89
2024-04-23T19:46:21.189Z,49.93
2024-04-23T19:48:48.743Z,50.06
2024-04-23T19:51:20.762Z,50.18
2024-04-23T19:53:50.718Z,50.34
2024-04-23T19:56:34.685Z,50.41
2024-04-23T19:59:02.803Z,50.42
2024-04-23T20:01:33.294Z,50.56
2024-04-23T20:03:59.907Z,50.58
2024-04-23T20:06:26.498Z,50.62
2024-04-23T20:08:53.034Z,50.67
2024-04-23T20:11:19.760Z,50.72
2024-04-23T20:13:46.415Z,50.74
2024-04-23T20:16:12.963Z,50.88
2024-04-23T20:18:39.657Z,50.94
2024-04-23T20:21:13.698Z,51.05
2024-04-23T20:23:41.054Z,51.00
2024-04-23T20:26:07.727Z,51.02
2024-04-23T20:28:34.247Z,51.07
2024-04-23T20:31:02.047Z,51.20
2024-04-23T20:33:28.536Z,51.22
2024-04-23T20:36:02.477Z,51.39
2024-04-23T20:38:29.065Z,51.45
2024-04-23T20:40:55.599Z,51.55
2024-04-23T20:43:22.335Z,51.68
2024-04-23T20:45:49.022Z,51.73
2024-04-23T20:48:18.597Z,51.65
2024-04-23T20:50:50.333Z,51.76
2024-04-23T20:53:16.992Z,51.78
2024-04-23T20:55:43.642Z,51.82
2024-04-23T20:58:10.149Z,51.94
2024-04-23T21:00:36.716Z,51.94
2024-04-23T21:03:04.105Z,51.94
2024-04-23T21:05:30.987Z,52.00
2024-04-23T21:07:57.598Z,52.04
2024-04-23T21:10:24.211Z,52.10
2024-04-23T21:12:50.682Z,52.15
2024-04-23T21:15:17.146Z,52.19
2024-04-23T21:17:43.868Z,52.18
2024-04-23T21:20:10.557Z,52.25
2024-04-23T21:22:37.168Z,52.35
2024-04-23T21:25:03.931Z,52.43
2024-04-23T21:27:30.438Z,52.48
2024-04-23T21:29:56.919Z,52.45
2024-04-23T21:32:24.545Z,52.43
2024-04-23T21:34:51.255Z,52.51
2024-04-23T21:37:17.710Z,52.54
2024-04-23T21:39:44.110Z,52.55
2024-04-23T21:42:12.603Z,52.60
2024-04-23T21:44:40.710Z,52.65
2024-04-23T21:47:07.410Z,52.73
2024-04-23T21:49:33.859Z,52.63
2024-04-23T21:52:16.485Z,52.76
2024-04-23T21:54:47.235Z,52.86
2024-04-23T21:57:14.172Z,52.89
2024-04-23T21:59:41.081Z,52.90
2024-04-23T22:02:07.662Z,52.84
2024-04-23T22:04:34.315Z,52.91
2024-04-23T22:07:00.850Z,52.89
2024-04-23T22:09:27.337Z,53.02
2024-04-23T22:11:53.970Z,53.12
2024-04-23T22:14:20.609Z,53.18
2024-04-23T22:16:48.079Z,53.27
2024-04-23T22:19:14.906Z,53.29
2024-04-23T22:21:41.415Z,53.32
2024-04-23T22:24:08.231Z,53.36
2024-04-23T22:26:34.759Z,53.43
2024-04-23T22:29:01.314Z,53.44
2024-04-23T22:31:27.878Z,53.41
2024-04-23T22:33:54.423Z,53.52
2024-04-23T22:36:21.071Z,53.51
2024-04-23T22:38:47.559Z,53.60
2024-04-23T22:41:14.179Z,53.63
2024-04-23T22:43:40.674Z,53.63
2024-04-23T22:46:07.139Z,53.60
2024-04-23T22:48:34.316Z,53.71
2024-04-23T22:51:01.168Z,53.73
2024-04-23T22:53:27.644Z,53.67
2024-04-23T22:55:54.214Z,53.75
2024-04-23T22:58:22.449Z,53.68
2024-04-23T23:00:49.040Z,53.77
2024-04-23T23:03:15.721Z,53.80
2024-04-23T23:05:42.494Z,53.84
2024-04-23T23:08:08.959Z,53.87
2024-04-23T23:10:35.858Z,53.83
2024-04-23T23:13:02.382Z,53.88
2024-04-23T23:15:28.800Z,53.90
2024-04-23T23:17:55.263Z,53.92
2024-04-23T23:20:21.932Z,53.97
2024-04-23T23:22:50.163Z,54.02
2024-04-23T23:25:16.800Z,54.04
2024-04-23T23:27:43.253Z,54.06
2024-04-23T23:30:10.057Z,54.09
2024-04-23T23:32:36.733Z,54.17
2024-04-23T23:35:03.427Z,54.18
2024-04-23T23:37:29.940Z,54.20
2024-04-23T23:42:40.649Z,54.24
2024-04-23T23:45:10.319Z,54.32
2024-04-23T23:47:37.347Z,54.30
2024-04-23T23:50:04.848Z,54.41
2024-04-23T23:52:31.441Z,54.31
2024-04-23T23:54:57.999Z,54.44
2024-04-23T23:57:24.435Z,54.49
2024-04-23T23:59:51.185Z,54.50
